sensor_id;sensor_type;location;lat;lon;timestamp;P1;durP1;ratioP1;P2;durP2;ratioP2
9986;SDS011;5033;46.310;11.214;2024-01-15T00:00:35;8.13;;;7.43;;
9986;SDS011;5033;46.310;11.214;2024-01-15T00:03:02;8.80;;;7.95;;
9986;SDS011;5033;46.310;11.214;2024-01-15T00:05:30;8.45;;;7.65;;
9986;SDS011;5033;46.310;11.214;2024-01-15T00:07:57;7.63;;;6.93;;
9986;SDS011;5033;46.310;11.214;2024-01-15T00:10:24;8.48;;;7.47;;
9986;SDS011;5033;46.310;11.214;2024-01-15T00:12:51;8.73;;;7.85;;
9986;SDS011;5033;46.310;11.214;2024-01-15T00:15:18;7.90;;;7.20;;
9986;SDS011;5033;46.310;11.214;2024-01-15T00:17:46;8.10;;;7.40;;
9986;SDS011;5033;46.310;11.214;2024-01-15T00:20:14;7.18;;;6.55;;
9986;SDS011;5033;46.310;11.214;2024-01-15T00:22:41;7.30;;;6.70;;
9986;SDS011;5033;46.310;11.214;2024-01-15T00:25:08;7.28;;;6.68;;
9986;SDS011;5033;46.310;11.214;2024-01-15T00:27:35;8.63;;;7.85;;
9986;SDS011;5033;46.310;11.214;2024-01-15T00:30:03;7.70;;;7.05;;
9986;SDS011;5033;46.310;11.214;2024-01-15T00:32:30;7.90;;;7.20;;
9986;SDS011;5033;46.310;11.214;2024-01-15T00:34:59;8.30;;;7.60;;
9986;SDS011;5033;46.310;11.214;2024-01-15T00:37:26;7.55;;;6.85;;
9986;SDS011;5033;46.310;11.214;2024-01-15T00:39:53;7.28;;;6.68;;
9986;SDS011;5033;46.310;11.214;2024-01-15T00:42:20;7.63;;;7.03;;
9986;SDS011;5033;46.310;11.214;2024-01-15T00:44:47;6.97;;;6.35;;
9986;SDS011;5033;46.310;11.214;2024-01-15T00:47:14;6.90;;;6.30;;
9986;SDS011;5033;46.310;11.214;2024-01-15T00:49:41;6.70;;;6.20;;
9986;SDS011;5033;46.310;11.214;2024-01-15T00:52:10;7.15;;;6.55;;
9986;SDS011;5033;46.310;11.214;2024-01-15T00:54:37;6.65;;;6.10;;
9986;SDS011;5033;46.310;11.214;2024-01-15T00:57:05;7.43;;;6.72;;
9986;SDS011;5033;46.310;11.214;2024-01-15T00:59:32;7.75;;;7.15;;
9986;SDS011;5033;46.310;11.214;2024-01-15T01:01:59;7.90;;;7.20;;
9986;SDS011;5033;46.310;11.214;2024-01-15T01:04:27;7.32;;;6.65;;
9986;SDS011;5033;46.310;11.214;2024-01-15T01:06:54;7.10;;;6.40;;
9986;SDS011;5033;46.310;11.214;2024-01-15T01:09:23;7.18;;;6.57;;
9986;SDS011;5033;46.310;11.214;2024-01-15T01:11:50;7.22;;;6.63;;
9986;SDS011;5033;46.310;11.214;2024-01-15T01:14:17;6.28;;;5.78;;
9986;SDS011;5033;46.310;11.214;2024-01-15T01:16:44;6.43;;;5.93;;
9986;SDS011;5033;46.310;11.214;2024-01-15T01:19:11;6.78;;;6.25;;
9986;SDS011;5033;46.310;11.214;2024-01-15T01:21:38;6.63;;;6.10;;
9986;SDS011;5033;46.310;11.214;2024-01-15T01:24:05;6.75;;;6.15;;
9986;SDS011;5033;46.310;11.214;2024-01-15T01:26:34;6.25;;;5.78;;
9986;SDS011;5033;46.310;11.214;2024-01-15T01:29:01;6.43;;;5.93;;
9986;SDS011;5033;46.310;11.214;2024-01-15T01:31:28;6.53;;;6.03;;
9986;SDS011;5033;46.310;11.214;2024-01-15T01:33:55;6.68;;;6.10;;
9986;SDS011;5033;46.310;11.214;2024-01-15T01:36:22;6.00;;;5.60;;
9986;SDS011;5033;46.310;11.214;2024-01-15T01:38:49;6.18;;;5.68;;
9986;SDS011;5033;46.310;11.214;2024-01-15T01:41:16;6.13;;;5.70;;
9986;SDS011;5033;46.310;11.214;2024-01-15T01:43:44;6.50;;;6.00;;
9986;SDS011;5033;46.310;11.214;2024-01-15T01:46:11;6.32;;;5.75;;
9986;SDS011;5033;46.310;11.214;2024-01-15T01:48:39;6.70;;;6.00;;
9986;SDS011;5033;46.310;11.214;2024-01-15T01:51:06;6.55;;;5.95;;
9986;SDS011;5033;46.310;11.214;2024-01-15T01:53:34;6.80;;;6.20;;
9986;SDS011;5033;46.310;11.214;2024-01-15T01:56:02;6.70;;;6.13;;
9986;SDS011;5033;46.310;11.214;2024-01-15T01:58:31;6.47;;;5.88;;
9986;SDS011;5033;46.310;11.214;2024-01-15T02:01:00;6.65;;;6.15;;
9986;SDS011;5033;46.310;11.214;2024-01-15T02:03:27;6.15;;;5.65;;
9986;SDS011;5033;46.310;11.214;2024-01-15T02:05:56;6.28;;;5.72;;
9986;SDS011;5033;46.310;11.214;2024-01-15T02:08:23;7.25;;;6.50;;
9986;SDS011;5033;46.310;11.214;2024-01-15T02:10:51;5.63;;;5.22;;
9986;SDS011;5033;46.310;11.214;2024-01-15T02:13:18;5.88;;;5.38;;
9986;SDS011;5033;46.310;11.214;2024-01-15T02:15:46;6.55;;;6.05;;
9986;SDS011;5033;46.310;11.214;2024-01-15T02:18:14;6.10;;;5.70;;
9986;SDS011;5033;46.310;11.214;2024-01-15T02:20:41;6.68;;;6.18;;
9986;SDS011;5033;46.310;11.214;2024-01-15T02:23:11;6.40;;;5.90;;
9986;SDS011;5033;46.310;11.214;2024-01-15T02:25:39;6.30;;;5.80;;
9986;SDS011;5033;46.310;11.214;2024-01-15T02:28:09;5.85;;;5.35;;
9986;SDS011;5033;46.310;11.214;2024-01-15T02:30:38;6.60;;;6.00;;
9986;SDS011;5033;46.310;11.214;2024-01-15T02:33:06;6.30;;;5.80;;
9986;SDS011;5033;46.310;11.214;2024-01-15T02:35:34;5.85;;;5.35;;
9986;SDS011;5033;46.310;11.214;2024-01-15T02:38:02;6.53;;;5.93;;
9986;SDS011;5033;46.310;11.214;2024-01-15T02:40:31;6.47;;;5.78;;
9986;SDS011;5033;46.310;11.214;2024-01-15T02:42:58;6.47;;;5.88;;
9986;SDS011;5033;46.310;11.214;2024-01-15T02:45:25;6.32;;;5.82;;
9986;SDS011;5033;46.310;11.214;2024-01-15T02:47:53;5.88;;;5.38;;
9986;SDS011;5033;46.310;11.214;2024-01-15T02:50:20;6.03;;;5.63;;
9986;SDS011;5033;46.310;11.214;2024-01-15T02:52:47;6.18;;;5.68;;
9986;SDS011;5033;46.310;11.214;2024-01-15T02:55:14;5.80;;;5.30;;
9986;SDS011;5033;46.310;11.214;2024-01-15T02:57:43;6.38;;;5.88;;
9986;SDS011;5033;46.310;11.214;2024-01-15T03:00:10;5.82;;;5.43;;
9986;SDS011;5033;46.310;11.214;2024-01-15T03:02:38;6.15;;;5.65;;
9986;SDS011;5033;46.310;11.214;2024-01-15T03:05:08;6.10;;;5.60;;
9986;SDS011;5033;46.310;11.214;2024-01-15T03:07:35;5.88;;;5.40;;
9986;SDS011;5033;46.310;11.214;2024-01-15T03:10:04;5.85;;;5.35;;
9986;SDS011;5033;46.310;11.214;2024-01-15T03:12:32;6.32;;;5.82;;
9986;SDS011;5033;46.310;11.214;2024-01-15T03:15:00;5.13;;;4.72;;
9986;SDS011;5033;46.310;11.214;2024-01-15T03:17:28;5.60;;;5.20;;
9986;SDS011;5033;46.310;11.214;2024-01-15T03:19:55;6.10;;;5.60;;
9986;SDS011;5033;46.310;11.214;2024-01-15T03:22:22;5.25;;;4.85;;
9986;SDS011;5033;46.310;11.214;2024-01-15T03:24:49;5.88;;;5.40;;
9986;SDS011;5033;46.310;11.214;2024-01-15T03:27:16;6.88;;;6.18;;
9986;SDS011;5033;46.310;11.214;2024-01-15T03:29:43;6.65;;;6.05;;
9986;SDS011;5033;46.310;11.214;2024-01-15T03:32:11;6.38;;;5.85;;
9986;SDS011;5033;46.310;11.214;2024-01-15T03:34:38;6.28;;;5.70;;
9986;SDS011;5033;46.310;11.214;2024-01-15T03:37:05;5.85;;;5.40;;
9986;SDS011;5033;46.310;11.214;2024-01-15T03:39:32;5.95;;;5.50;;
9986;SDS011;5033;46.310;11.214;2024-01-15T03:41:59;6.55;;;6.05;;
9986;SDS011;5033;46.310;11.214;2024-01-15T03:44:26;6.20;;;5.70;;
9986;SDS011;5033;46.310;11.214;2024-01-15T03:46:53;6.03;;;5.53;;
9986;SDS011;5033;46.310;11.214;2024-01-15T03:49:22;5.63;;;5.20;;
9986;SDS011;5033;46.310;11.214;2024-01-15T03:51:49;5.32;;;4.88;;
9986;SDS011;5033;46.310;11.214;2024-01-15T03:54:16;6.10;;;5.60;;
9986;SDS011;5033;46.310;11.214;2024-01-15T03:56:43;5.70;;;5.30;;
9986;SDS011;5033;46.310;11.214;2024-01-15T03:59:10;5.72;;;5.32;;
9986;SDS011;5033;46.310;11.214;2024-01-15T04:01:37;5.70;;;5.30;;
9986;SDS011;5033;46.310;11.214;2024-01-15T04:04:04;5.57;;;5.18;;
9986;SDS011;5033;46.310;11.214;2024-01-15T04:06:32;6.07;;;5.68;;
9986;SDS011;5033;46.310;11.214;2024-01-15T04:08:59;6.07;;;5.57;;
9986;SDS011;5033;46.310;11.214;2024-01-15T04:11:26;6.22;;;5.72;;
9986;SDS011;5033;46.310;11.214;2024-01-15T04:13:54;5.75;;;5.35;;
9986;SDS011;5033;46.310;11.214;2024-01-15T04:16:21;6.10;;;5.60;;
9986;SDS011;5033;46.310;11.214;2024-01-15T04:18:48;5.60;;;5.20;;
9986;SDS011;5033;46.310;11.214;2024-01-15T04:21:16;6.43;;;5.93;;
9986;SDS011;5033;46.310;11.214;2024-01-15T04:23:45;6.05;;;5.55;;
9986;SDS011;5033;46.310;11.214;2024-01-15T04:26:12;5.80;;;5.40;;
9986;SDS011;5033;46.310;11.214;2024-01-15T04:28:39;6.03;;;5.63;;
9986;SDS011;5033;46.310;11.214;2024-01-15T04:31:06;5.75;;;5.35;;
9986;SDS011;5033;46.310;11.214;2024-01-15T04:33:33;6.55;;;5.95;;
9986;SDS011;5033;46.310;11.214;2024-01-15T04:36:01;7.20;;;5.95;;
9986;SDS011;5033;46.310;11.214;2024-01-15T04:38:28;5.50;;;5.10;;
9986;SDS011;5033;46.310;11.214;2024-01-15T04:40:57;5.57;;;5.07;;
9986;SDS011;5033;46.310;11.214;2024-01-15T04:43:24;6.18;;;5.78;;
9986;SDS011;5033;46.310;11.214;2024-01-15T04:45:51;5.82;;;5.43;;
9986;SDS011;5033;46.310;11.214;2024-01-15T04:48:18;6.63;;;5.90;;
9986;SDS011;5033;46.310;11.214;2024-01-15T04:50:45;6.00;;;5.60;;
9986;SDS011;5033;46.310;11.214;2024-01-15T04:53:13;6.13;;;5.63;;
9986;SDS011;5033;46.310;11.214;2024-01-15T04:55:40;6.22;;;5.80;;
9986;SDS011;5033;46.310;11.214;2024-01-15T04:58:08;6.07;;;5.57;;
9986;SDS011;5033;46.310;11.214;2024-01-15T05:00:35;6.07;;;5.68;;
9986;SDS011;5033;46.310;11.214;2024-01-15T05:03:03;6.57;;;6.07;;
9986;SDS011;5033;46.310;11.214;2024-01-15T05:05:30;5.82;;;5.43;;
9986;SDS011;5033;46.310;11.214;2024-01-15T05:07:57;6.32;;;5.82;;
9986;SDS011;5033;46.310;11.214;2024-01-15T05:10:24;5.72;;;5.32;;
9986;SDS011;5033;46.310;11.214;2024-01-15T05:12:51;5.97;;;5.55;;
9986;SDS011;5033;46.310;11.214;2024-01-15T05:15:20;5.70;;;5.28;;
9986;SDS011;5033;46.310;11.214;2024-01-15T05:17:47;6.13;;;5.63;;
9986;SDS011;5033;46.310;11.214;2024-01-15T05:20:14;6.72;;;6.18;;
9986;SDS011;5033;46.310;11.214;2024-01-15T05:22:42;5.75;;;5.35;;
9986;SDS011;5033;46.310;11.214;2024-01-15T05:25:09;5.50;;;5.10;;
9986;SDS011;5033;46.310;11.214;2024-01-15T05:27:36;5.97;;;5.50;;
9986;SDS011;5033;46.310;11.214;2024-01-15T05:30:03;5.63;;;5.22;;
9986;SDS011;5033;46.310;11.214;2024-01-15T05:32:33;5.82;;;5.43;;
9986;SDS011;5033;46.310;11.214;2024-01-15T05:35:00;5.57;;;5.18;;
9986;SDS011;5033;46.310;11.214;2024-01-15T05:37:27;6.40;;;5.90;;
9986;SDS011;5033;46.310;11.214;2024-01-15T05:39:54;6.05;;;5.65;;
9986;SDS011;5033;46.310;11.214;2024-01-15T05:42:21;6.70;;;6.20;;
9986;SDS011;5033;46.310;11.214;2024-01-15T05:44:48;5.70;;;5.20;;
9986;SDS011;5033;46.310;11.214;2024-01-15T05:47:15;6.10;;;5.60;;
9986;SDS011;5033;46.310;11.214;2024-01-15T05:49:44;5.68;;;5.25;;
9986;SDS011;5033;46.310;11.214;2024-01-15T05:52:11;5.55;;;5.15;;
9986;SDS011;5033;46.310;11.214;2024-01-15T05:54:38;6.28;;;5.78;;
9986;SDS011;5033;46.310;11.214;2024-01-15T05:57:05;6.03;;;5.53;;
9986;SDS011;5033;46.310;11.214;2024-01-15T05:59:32;5.93;;;5.53;;
9986;SDS011;5033;46.310;11.214;2024-01-15T06:02:01;6.00;;;5.60;;
9986;SDS011;5033;46.310;11.214;2024-01-15T06:04:28;5.43;;;5.03;;
9986;SDS011;5033;46.310;11.214;2024-01-15T06:06:56;6.20;;;5.70;;
9986;SDS011;5033;46.310;11.214;2024-01-15T06:09:23;5.65;;;5.15;;
9986;SDS011;5033;46.310;11.214;2024-01-15T06:11:50;6.82;;;6.32;;
9986;SDS011;5033;46.310;11.214;2024-01-15T06:14:17;5.85;;;5.45;;
9986;SDS011;5033;46.310;11.214;2024-01-15T06:16:44;6.75;;;6.25;;
9986;SDS011;5033;46.310;11.214;2024-01-15T06:19:11;6.70;;;6.20;;
9986;SDS011;5033;46.310;11.214;2024-01-15T06:21:38;6.82;;;6.32;;
9986;SDS011;5033;46.310;11.214;2024-01-15T06:24:07;6.88;;;6.28;;
9986;SDS011;5033;46.310;11.214;2024-01-15T06:26:35;7.00;;;6.50;;
9986;SDS011;5033;46.310;11.214;2024-01-15T06:29:02;7.45;;;6.85;;
9986;SDS011;5033;46.310;11.214;2024-01-15T06:31:29;6.35;;;5.85;;
9986;SDS011;5033;46.310;11.214;2024-01-15T06:33:56;6.50;;;6.00;;
9986;SDS011;5033;46.310;11.214;2024-01-15T06:36:23;7.03;;;6.43;;
9986;SDS011;5033;46.310;11.214;2024-01-15T06:38:50;7.47;;;6.88;;
9986;SDS011;5033;46.310;11.214;2024-01-15T06:41:19;6.63;;;6.13;;
9986;SDS011;5033;46.310;11.214;2024-01-15T06:43:46;6.95;;;6.35;;
9986;SDS011;5033;46.310;11.214;2024-01-15T06:46:13;7.88;;;7.20;;
9986;SDS011;5033;46.310;11.214;2024-01-15T06:48:46;7.13;;;6.53;;
9986;SDS011;5033;46.310;11.214;2024-01-15T06:51:13;8.43;;;6.80;;
9986;SDS011;5033;46.310;11.214;2024-01-15T06:53:41;7.97;;;7.18;;
9986;SDS011;5033;46.310;11.214;2024-01-15T06:56:08;8.80;;;8.02;;
9986;SDS011;5033;46.310;11.214;2024-01-15T06:58:37;7.68;;;6.97;;
9986;SDS011;5033;46.310;11.214;2024-01-15T07:01:04;7.43;;;6.70;;
9986;SDS011;5033;46.310;11.214;2024-01-15T07:03:31;6.60;;;6.10;;
9986;SDS011;5033;46.310;11.214;2024-01-15T07:05:58;6.72;;;6.22;;
9986;SDS011;5033;46.310;11.214;2024-01-15T07:08:25;6.70;;;6.20;;
9986;SDS011;5033;46.310;11.214;2024-01-15T07:10:52;6.57;;;5.97;;
9986;SDS011;5033;46.310;11.214;2024-01-15T07:13:19;6.22;;;5.72;;
9986;SDS011;5033;46.310;11.214;2024-01-15T07:15:48;6.30;;;5.80;;
9986;SDS011;5033;46.310;11.214;2024-01-15T07:18:15;6.40;;;6.00;;
9986;SDS011;5033;46.310;11.214;2024-01-15T07:20:42;6.28;;;5.75;;
9986;SDS011;5033;46.310;11.214;2024-01-15T07:23:09;6.60;;;6.10;;
9986;SDS011;5033;46.310;11.214;2024-01-15T07:25:37;10.43;;;5.68;;
9986;SDS011;5033;46.310;11.214;2024-01-15T07:28:04;6.45;;;5.95;;
9986;SDS011;5033;46.310;11.214;2024-01-15T07:30:31;6.22;;;5.72;;
9986;SDS011;5033;46.310;11.214;2024-01-15T07:33:00;6.45;;;5.95;;
9986;SDS011;5033;46.310;11.214;2024-01-15T07:35:29;6.25;;;5.85;;
9986;SDS011;5033;46.310;11.214;2024-01-15T07:37:56;7.15;;;6.45;;
9986;SDS011;5033;46.310;11.214;2024-01-15T07:40:23;6.38;;;5.95;;
9986;SDS011;5033;46.310;11.214;2024-01-15T07:42:50;6.60;;;6.10;;
9986;SDS011;5033;46.310;11.214;2024-01-15T07:45:18;6.40;;;5.90;;
9986;SDS011;5033;46.310;11.214;2024-01-15T07:47:47;6.00;;;5.60;;
9986;SDS011;5033;46.310;11.214;2024-01-15T07:50:15;6.30;;;5.82;;
9986;SDS011;5033;46.310;11.214;2024-01-15T07:52:42;6.57;;;6.05;;
9986;SDS011;5033;46.310;11.214;2024-01-15T07:55:10;5.90;;;5.43;;
9986;SDS011;5033;46.310;11.214;2024-01-15T07:57:37;6.68;;;6.18;;
9986;SDS011;5033;46.310;11.214;2024-01-15T08:00:04;8.18;;;7.47;;
9986;SDS011;5033;46.310;11.214;2024-01-15T08:02:34;8.65;;;7.88;;
9986;SDS011;5033;46.310;11.214;2024-01-15T08:05:01;7.93;;;7.13;;
9986;SDS011;5033;46.310;11.214;2024-01-15T08:07:29;8.45;;;7.65;;
9986;SDS011;5033;46.310;11.214;2024-01-15T08:09:56;8.07;;;7.28;;
9986;SDS011;5033;46.310;11.214;2024-01-15T08:12:23;8.18;;;7.47;;
9986;SDS011;5033;46.310;11.214;2024-01-15T08:14:50;8.90;;;8.00;;
9986;SDS011;5033;46.310;11.214;2024-01-15T08:17:17;8.15;;;7.50;;
9986;SDS011;5033;46.310;11.214;2024-01-15T08:19:44;8.60;;;7.80;;
9986;SDS011;5033;46.310;11.214;2024-01-15T08:22:11;8.13;;;7.32;;
9986;SDS011;5033;46.310;11.214;2024-01-15T08:24:40;8.70;;;7.90;;
9986;SDS011;5033;46.310;11.214;2024-01-15T08:27:07;10.65;;;8.70;;
9986;SDS011;5033;46.310;11.214;2024-01-15T08:29:34;8.00;;;7.30;;
9986;SDS011;5033;46.310;11.214;2024-01-15T08:32:01;8.52;;;7.82;;
9986;SDS011;5033;46.310;11.214;2024-01-15T08:34:29;8.10;;;7.38;;
9986;SDS011;5033;46.310;11.214;2024-01-15T08:36:56;7.78;;;7.07;;
9986;SDS011;5033;46.310;11.214;2024-01-15T08:39:23;9.00;;;7.45;;
9986;SDS011;5033;46.310;11.214;2024-01-15T08:41:51;10.00;;;7.90;;
9986;SDS011;5033;46.310;11.214;2024-01-15T08:44:18;8.73;;;7.93;;
9986;SDS011;5033;46.310;11.214;2024-01-15T08:46:45;8.85;;;7.95;;
9986;SDS011;5033;46.310;11.214;2024-01-15T08:49:12;8.38;;;7.60;;
9986;SDS011;5033;46.310;11.214;2024-01-15T08:51:39;7.75;;;7.05;;
9986;SDS011;5033;46.310;11.214;2024-01-15T08:54:06;8.38;;;7.57;;
9986;SDS011;5033;46.310;11.214;2024-01-15T08:56:34;7.82;;;7.13;;
9986;SDS011;5033;46.310;11.214;2024-01-15T08:59:02;7.70;;;7.00;;
9986;SDS011;5033;46.310;11.214;2024-01-15T09:01:29;8.02;;;7.28;;
9986;SDS011;5033;46.310;11.214;2024-01-15T09:03:57;7.65;;;6.82;;
9986;SDS011;5033;46.310;11.214;2024-01-15T09:06:24;10.45;;;7.30;;
9986;SDS011;5033;46.310;11.214;2024-01-15T09:08:51;8.35;;;7.55;;
9986;SDS011;5033;46.310;11.214;2024-01-15T09:11:18;8.98;;;8.15;;
9986;SDS011;5033;46.310;11.214;2024-01-15T09:13:45;8.82;;;8.02;;
9986;SDS011;5033;46.310;11.214;2024-01-15T09:16:14;10.93;;;8.02;;
9986;SDS011;5033;46.310;11.214;2024-01-15T09:18:41;9.35;;;8.35;;
9986;SDS011;5033;46.310;11.214;2024-01-15T09:21:08;9.15;;;7.60;;
9986;SDS011;5033;46.310;11.214;2024-01-15T09:23:37;8.32;;;7.53;;
9986;SDS011;5033;46.310;11.214;2024-01-15T09:26:05;7.80;;;7.10;;
9986;SDS011;5033;46.310;11.214;2024-01-15T09:28:34;9.40;;;7.65;;
9986;SDS011;5033;46.310;11.214;2024-01-15T09:31:01;7.43;;;6.72;;
9986;SDS011;5033;46.310;11.214;2024-01-15T09:33:30;7.55;;;6.85;;
9986;SDS011;5033;46.310;11.214;2024-01-15T09:35:57;8.60;;;7.65;;
9986;SDS011;5033;46.310;11.214;2024-01-15T09:38:27;8.88;;;6.80;;
9986;SDS011;5033;46.310;11.214;2024-01-15T09:40:54;7.50;;;6.55;;
9986;SDS011;5033;46.310;11.214;2024-01-15T09:43:21;7.65;;;6.95;;
9986;SDS011;5033;46.310;11.214;2024-01-15T09:45:48;7.55;;;6.78;;
9986;SDS011;5033;46.310;11.214;2024-01-15T09:48:16;9.48;;;6.47;;
9986;SDS011;5033;46.310;11.214;2024-01-15T09:50:45;7.82;;;7.00;;
9986;SDS011;5033;46.310;11.214;2024-01-15T09:53:12;7.38;;;6.65;;
9986;SDS011;5033;46.310;11.214;2024-01-15T09:55:41;7.55;;;6.85;;
9986;SDS011;5033;46.310;11.214;2024-01-15T09:58:09;7.80;;;6.72;;
9986;SDS011;5033;46.310;11.214;2024-01-15T10:00:37;8.43;;;7.30;;
9986;SDS011;5033;46.310;11.214;2024-01-15T10:03:07;7.35;;;6.65;;
9986;SDS011;5033;46.310;11.214;2024-01-15T10:05:35;7.32;;;6.43;;
9986;SDS011;5033;46.310;11.214;2024-01-15T10:08:04;8.88;;;7.50;;
9986;SDS011;5033;46.310;11.214;2024-01-15T10:10:31;8.35;;;7.45;;
9986;SDS011;5033;46.310;11.214;2024-01-15T10:12:58;7.72;;;6.93;;
9986;SDS011;5033;46.310;11.214;2024-01-15T10:15:26;9.05;;;7.72;;
9986;SDS011;5033;46.310;11.214;2024-01-15T10:17:53;8.30;;;7.50;;
9986;SDS011;5033;46.310;11.214;2024-01-15T10:20:20;7.30;;;6.60;;
9986;SDS011;5033;46.310;11.214;2024-01-15T10:22:49;8.82;;;7.75;;
9986;SDS011;5033;46.310;11.214;2024-01-15T10:25:18;8.77;;;7.47;;
9986;SDS011;5033;46.310;11.214;2024-01-15T10:27:58;7.07;;;6.38;;
9986;SDS011;5033;46.310;11.214;2024-01-15T10:30:26;7.40;;;6.70;;
9986;SDS011;5033;46.310;11.214;2024-01-15T10:32:57;7.00;;;6.30;;
9986;SDS011;5033;46.310;11.214;2024-01-15T10:35:26;7.50;;;6.70;;
9986;SDS011;5033;46.310;11.214;2024-01-15T10:37:55;8.05;;;7.13;;
9986;SDS011;5033;46.310;11.214;2024-01-15T10:40:24;9.35;;;6.78;;
9986;SDS011;5033;46.310;11.214;2024-01-15T10:42:51;7.38;;;6.53;;
9986;SDS011;5033;46.310;11.214;2024-01-15T10:45:18;7.32;;;6.63;;
9986;SDS011;5033;46.310;11.214;2024-01-15T10:47:46;8.65;;;7.00;;
9986;SDS011;5033;46.310;11.214;2024-01-15T10:50:13;8.20;;;6.65;;
9986;SDS011;5033;46.310;11.214;2024-01-15T10:52:41;6.95;;;6.25;;
9986;SDS011;5033;46.310;11.214;2024-01-15T10:55:09;8.15;;;6.38;;
9986;SDS011;5033;46.310;11.214;2024-01-15T10:57:38;7.93;;;6.40;;
9986;SDS011;5033;46.310;11.214;2024-01-15T11:00:06;7.55;;;6.75;;
9986;SDS011;5033;46.310;11.214;2024-01-15T11:02:39;9.45;;;7.65;;
9986;SDS011;5033;46.310;11.214;2024-01-15T11:05:08;7.05;;;6.40;;
9986;SDS011;5033;46.310;11.214;2024-01-15T11:07:35;7.30;;;6.60;;
9986;SDS011;5033;46.310;11.214;2024-01-15T11:10:05;9.45;;;6.32;;
9986;SDS011;5033;46.310;11.214;2024-01-15T11:12:35;8.20;;;6.72;;
9986;SDS011;5033;46.310;11.214;2024-01-15T11:15:04;7.13;;;6.35;;
9986;SDS011;5033;46.310;11.214;2024-01-15T11:20:26;8.38;;;6.68;;
9986;SDS011;5033;46.310;11.214;2024-01-15T11:22:53;7.30;;;6.70;;
9986;SDS011;5033;46.310;11.214;2024-01-15T11:25:22;9.23;;;6.97;;
9986;SDS011;5033;46.310;11.214;2024-01-15T11:27:50;7.53;;;5.95;;
9986;SDS011;5033;46.310;11.214;2024-01-15T11:30:19;7.03;;;6.32;;
9986;SDS011;5033;46.310;11.214;2024-01-15T11:32:51;7.72;;;6.57;;
9986;SDS011;5033;46.310;11.214;2024-01-15T11:35:18;6.93;;;6.20;;
9986;SDS011;5033;46.310;11.214;2024-01-15T11:40:36;6.30;;;5.80;;
9986;SDS011;5033;46.310;11.214;2024-01-15T11:43:04;10.00;;;6.05;;
9986;SDS011;5033;46.310;11.214;2024-01-15T11:45:33;7.03;;;6.32;;
9986;SDS011;5033;46.310;11.214;2024-01-15T11:48:10;7.47;;;6.45;;
9986;SDS011;5033;46.310;11.214;2024-01-15T11:50:41;6.55;;;5.95;;
9986;SDS011;5033;46.310;11.214;2024-01-15T11:53:26;6.43;;;5.47;;
9986;SDS011;5033;46.310;11.214;2024-01-15T11:55:59;6.50;;;5.90;;
9986;SDS011;5033;46.310;11.214;2024-01-15T11:58:29;6.95;;;5.95;;
9986;SDS011;5033;46.310;11.214;2024-01-15T12:00:57;5.97;;;5.47;;
9986;SDS011;5033;46.310;11.214;2024-01-15T12:03:25;7.53;;;6.65;;
9986;SDS011;5033;46.310;11.214;2024-01-15T12:05:52;6.47;;;5.90;;
9986;SDS011;5033;46.310;11.214;2024-01-15T12:08:22;6.95;;;5.45;;
9986;SDS011;5033;46.310;11.214;2024-01-15T12:10:50;10.45;;;5.50;;
9986;SDS011;5033;46.310;11.214;2024-01-15T12:13:17;6.57;;;5.57;;
9986;SDS011;5033;46.310;11.214;2024-01-15T12:15:44;6.47;;;5.82;;
9986;SDS011;5033;46.310;11.214;2024-01-15T12:18:15;5.38;;;4.90;;
9986;SDS011;5033;46.310;11.214;2024-01-15T12:20:43;5.97;;;5.47;;
9986;SDS011;5033;46.310;11.214;2024-01-15T12:23:12;5.78;;;5.28;;
9986;SDS011;5033;46.310;11.214;2024-01-15T12:25:39;5.45;;;5.05;;
9986;SDS011;5033;46.310;11.214;2024-01-15T12:28:07;6.38;;;5.63;;
9986;SDS011;5033;46.310;11.214;2024-01-15T12:30:34;5.75;;;5.15;;
9986;SDS011;5033;46.310;11.214;2024-01-15T12:33:03;6.00;;;5.47;;
9986;SDS011;5033;46.310;11.214;2024-01-15T12:35:32;6.07;;;5.43;;
9986;SDS011;5033;46.310;11.214;2024-01-15T12:38:00;6.00;;;5.50;;
9986;SDS011;5033;46.310;11.214;2024-01-15T12:40:28;5.75;;;5.25;;
9986;SDS011;5033;46.310;11.214;2024-01-15T12:42:55;5.80;;;5.30;;
9986;SDS011;5033;46.310;11.214;2024-01-15T12:45:23;7.60;;;5.05;;
9986;SDS011;5033;46.310;11.214;2024-01-15T12:47:50;6.38;;;5.75;;
9986;SDS011;5033;46.310;11.214;2024-01-15T12:50:18;6.60;;;6.00;;
9986;SDS011;5033;46.310;11.214;2024-01-15T12:52:46;5.70;;;5.20;;
9986;SDS011;5033;46.310;11.214;2024-01-15T12:55:13;5.57;;;5.07;;
9986;SDS011;5033;46.310;11.214;2024-01-15T12:57:40;5.55;;;5.05;;
9986;SDS011;5033;46.310;11.214;2024-01-15T13:00:08;6.78;;;6.18;;
9986;SDS011;5033;46.310;11.214;2024-01-15T13:02:37;5.93;;;5.35;;
9986;SDS011;5033;46.310;11.214;2024-01-15T13:05:06;6.00;;;5.40;;
9986;SDS011;5033;46.310;11.214;2024-01-15T13:07:34;6.15;;;5.55;;
9986;SDS011;5033;46.310;11.214;2024-01-15T13:10:03;6.57;;;5.97;;
9986;SDS011;5033;46.310;11.214;2024-01-15T13:12:31;6.65;;;6.00;;
9986;SDS011;5033;46.310;11.214;2024-01-15T13:14:59;6.25;;;5.72;;
9986;SDS011;5033;46.310;11.214;2024-01-15T13:17:28;6.45;;;5.85;;
9986;SDS011;5033;46.310;11.214;2024-01-15T13:19:55;6.57;;;5.80;;
9986;SDS011;5033;46.310;11.214;2024-01-15T13:22:22;6.72;;;6.03;;
9986;SDS011;5033;46.310;11.214;2024-01-15T13:24:54;7.32;;;6.00;;
9986;SDS011;5033;46.310;11.214;2024-01-15T13:27:23;6.68;;;6.05;;
9986;SDS011;5033;46.310;11.214;2024-01-15T13:29:50;6.38;;;5.78;;
9986;SDS011;5033;46.310;11.214;2024-01-15T13:32:17;7.43;;;6.05;;
9986;SDS011;5033;46.310;11.214;2024-01-15T13:34:50;6.47;;;5.88;;
9986;SDS011;5033;46.310;11.214;2024-01-15T13:37:17;6.25;;;5.75;;
9986;SDS011;5033;46.310;11.214;2024-01-15T13:39:44;6.43;;;5.82;;
9986;SDS011;5033;46.310;11.214;2024-01-15T13:42:11;7.85;;;5.68;;
9986;SDS011;5033;46.310;11.214;2024-01-15T13:44:41;6.72;;;6.07;;
9986;SDS011;5033;46.310;11.214;2024-01-15T13:47:08;7.13;;;6.03;;
9986;SDS011;5033;46.310;11.214;2024-01-15T13:49:35;6.20;;;5.63;;
9986;SDS011;5033;46.310;11.214;2024-01-15T13:52:03;6.00;;;5.50;;
9986;SDS011;5033;46.310;11.214;2024-01-15T13:54:30;6.30;;;5.70;;
9986;SDS011;5033;46.310;11.214;2024-01-15T13:56:57;6.30;;;5.70;;
9986;SDS011;5033;46.310;11.214;2024-01-15T13:59:24;7.25;;;5.50;;
9986;SDS011;5033;46.310;11.214;2024-01-15T14:01:53;7.15;;;6.45;;
9986;SDS011;5033;46.310;11.214;2024-01-15T14:04:20;7.10;;;6.40;;
9986;SDS011;5033;46.310;11.214;2024-01-15T14:06:47;6.50;;;5.90;;
9986;SDS011;5033;46.310;11.214;2024-01-15T14:09:14;6.40;;;5.70;;
9986;SDS011;5033;46.310;11.214;2024-01-15T14:11:41;7.03;;;6.35;;
9986;SDS011;5033;46.310;11.214;2024-01-15T14:14:08;6.63;;;6.00;;
9986;SDS011;5033;46.310;11.214;2024-01-15T14:16:35;7.03;;;6.20;;
9986;SDS011;5033;46.310;11.214;2024-01-15T14:19:03;7.03;;;6.32;;
9986;SDS011;5033;46.310;11.214;2024-01-15T14:21:34;6.75;;;6.13;;
9986;SDS011;5033;46.310;11.214;2024-01-15T14:24:01;7.13;;;5.97;;
9986;SDS011;5033;46.310;11.214;2024-01-15T14:26:28;6.05;;;5.55;;
9986;SDS011;5033;46.310;11.214;2024-01-15T14:28:57;5.78;;;5.28;;
9986;SDS011;5033;46.310;11.214;2024-01-15T14:31:24;32.50;;;12.27;;
9986;SDS011;5033;46.310;11.214;2024-01-15T14:33:53;44.75;;;16.48;;
9986;SDS011;5033;46.310;11.214;2024-01-15T14:36:22;26.77;;;11.98;;
9986;SDS011;5033;46.310;11.214;2024-01-15T14:38:49;19.75;;;10.73;;
9986;SDS011;5033;46.310;11.214;2024-01-15T14:41:16;16.15;;;8.30;;
9986;SDS011;5033;46.310;11.214;2024-01-15T14:43:44;10.88;;;6.90;;
9986;SDS011;5033;46.310;11.214;2024-01-15T14:46:11;10.63;;;7.25;;
9986;SDS011;5033;46.310;11.214;2024-01-15T14:48:38;10.82;;;6.63;;
9986;SDS011;5033;46.310;11.214;2024-01-15T14:51:06;6.30;;;5.55;;
9986;SDS011;5033;46.310;11.214;2024-01-15T14:53:34;6.63;;;5.53;;
9986;SDS011;5033;46.310;11.214;2024-01-15T14:56:02;5.53;;;5.03;;
9986;SDS011;5033;46.310;11.214;2024-01-15T14:58:29;6.20;;;5.60;;
9986;SDS011;5033;46.310;11.214;2024-01-15T15:00:56;5.78;;;5.28;;
9986;SDS011;5033;46.310;11.214;2024-01-15T15:03:24;5.50;;;5.00;;
9986;SDS011;5033;46.310;11.214;2024-01-15T15:05:51;5.43;;;5.03;;
9986;SDS011;5033;46.310;11.214;2024-01-15T15:08:18;5.93;;;5.32;;